createdAt,value
2017-03-03T00:00:12.989Z,22.99
2017-03-03T00:00:27.636Z,23.03
2017-03-03T00:00:42.220Z,22.94
2017-03-03T00:00:56.852Z,22.91
2017-03-03T00:01:11.433Z,23.01
2017-03-03T00:01:26.014Z,22.97
2017-03-03T00:01:41.212Z,22.94
2017-03-03T00:01:57.873Z,22.99
2017-03-03T00:02:12.536Z,22.91
2017-03-03T00:02:27.125Z,22.97
2017-03-03T00:02:41.970Z,23.03
2017-03-03T00:02:57.078Z,22.99
2017-03-03T00:03:12.109Z,23.09
2017-03-03T00:03:26.711Z,23.06
2017-03-03T00:03:41.302Z,23.09
2017-03-03T00:03:56.221Z,23.12
2017-03-03T00:04:10.894Z,23.09
2017-03-03T00:04:25.530Z,23.01
2017-03-03T00:04:40.169Z,23.07
2017-03-03T00:04:54.773Z,23.1
2017-03-03T00:05:09.405Z,23.07
2017-03-03T00:05:25.366Z,23.14
2017-03-03T00:05:40.001Z,23.07
2017-03-03T00:05:54.638Z,23.04
2017-03-03T00:06:09.272Z,23.06
2017-03-03T00:06:23.913Z,23.04
2017-03-03T00:06:38.553Z,23.06
2017-03-03T00:06:53.156Z,23.12
2017-03-03T00:07:07.768Z,23.16
2017-03-03T00:07:22.627Z,23.16
2017-03-03T00:07:37.239Z,23.12
2017-03-03T00:07:51.915Z,23.15
2017-03-03T00:08:06.572Z,23.12
2017-03-03T00:08:21.223Z,23.21
2017-03-03T00:08:35.830Z,23.22
2017-03-03T00:08:50.509Z,23.28
2017-03-03T00:09:05.205Z,23.34
2017-03-03T00:09:19.898Z,23.29
2017-03-03T00:09:34.472Z,23.32
2017-03-03T00:09:49.115Z,23.4
2017-03-03T00:10:03.795Z,23.29
2017-03-03T00:10:18.420Z,23.38
2017-03-03T00:10:33.032Z,23.41
2017-03-03T00:10:47.898Z,23.41
2017-03-03T00:11:02.567Z,23.41
2017-03-03T00:11:17.190Z,23.41
2017-03-03T00:11:31.817Z,23.4
2017-03-03T00:11:46.471Z,23.45
2017-03-03T00:12:01.057Z,23.47
2017-03-03T00:12:15.687Z,23.45
2017-03-03T00:12:30.290Z,23.52
2017-03-03T00:12:44.994Z,23.45
2017-03-03T00:12:59.665Z,23.44
2017-03-03T00:13:14.297Z,23.47
2017-03-03T00:13:28.907Z,23.53
2017-03-03T00:13:43.548Z,23.5
2017-03-03T00:13:58.206Z,23.52
2017-03-03T00:14:12.863Z,23.42
2017-03-03T00:14:27.500Z,23.37
2017-03-03T00:14:42.132Z,23.38
2017-03-03T00:14:56.823Z,23.44
2017-03-03T00:15:11.471Z,23.44
2017-03-03T00:15:26.116Z,23.38
2017-03-03T00:15:40.735Z,23.42
2017-03-03T00:15:55.404Z,23.41
2017-03-03T00:16:10.037Z,23.38
2017-03-03T00:16:24.629Z,23.32
2017-03-03T00:16:39.242Z,23.35
2017-03-03T00:16:53.909Z,23.32
2017-03-03T00:17:08.564Z,23.32
2017-03-03T00:17:23.204Z,23.29
2017-03-03T00:17:37.839Z,23.35
2017-03-03T00:17:52.682Z,23.28
2017-03-03T00:18:07.339Z,23.32
2017-03-03T00:18:22.017Z,23.29
2017-03-03T00:18:36.598Z,23.32
2017-03-03T00:18:51.480Z,23.28
2017-03-03T00:19:06.182Z,23.35
2017-03-03T00:19:20.823Z,23.29
2017-03-03T00:19:35.462Z,23.19
2017-03-03T00:19:50.116Z,23.25
2017-03-03T00:20:04.707Z,23.28
2017-03-03T00:20:19.336Z,23.32
2017-03-03T00:20:33.935Z,23.34
2017-03-03T00:20:48.676Z,23.34
2017-03-03T00:21:03.290Z,23.32
2017-03-03T00:21:17.963Z,23.38
2017-03-03T00:21:32.604Z,23.35
2017-03-03T00:21:47.217Z,23.32
2017-03-03T00:22:02.464Z,23.34
2017-03-03T00:22:17.095Z,23.4
2017-03-03T00:22:31.777Z,23.4
2017-03-03T00:22:46.292Z,23.41
2017-03-03T00:23:00.818Z,23.44
2017-03-03T00:23:15.455Z,23.44
2017-03-03T00:23:30.038Z,23.47
2017-03-03T00:23:44.667Z,23.45
2017-03-03T00:23:59.396Z,23.48
2017-03-03T00:24:14.002Z,23.55
2017-03-03T00:24:28.650Z,23.52
2017-03-03T00:24:43.336Z,23.47
2017-03-03T00:24:57.934Z,23.48
2017-03-03T00:25:12.562Z,23.47
2017-03-03T00:25:27.222Z,23.56
2017-03-03T00:25:41.876Z,23.53
2017-03-03T00:25:56.490Z,23.53
2017-03-03T00:26:11.104Z,23.57
2017-03-03T00:26:25.763Z,23.56
2017-03-03T00:26:40.443Z,23.59
2017-03-03T00:26:55.023Z,23.55
2017-03-03T00:27:09.640Z,23.64
2017-03-03T00:27:24.296Z,23.57
2017-03-03T00:27:38.949Z,23.52
2017-03-03T00:27:53.813Z,23.56
2017-03-03T00:28:08.380Z,23.59
2017-03-03T00:28:22.955Z,23.57
2017-03-03T00:28:37.591Z,23.66
2017-03-03T00:28:52.187Z,23.62
2017-03-03T00:29:06.848Z,23.57
2017-03-03T00:29:21.449Z,23.62
2017-03-03T00:29:36.056Z,23.6
2017-03-03T00:29:50.685Z,23.59
2017-03-03T00:30:05.312Z,23.48
2017-03-03T00:30:20.163Z,23.5
2017-03-03T00:30:34.854Z,23.52
2017-03-03T00:30:49.554Z,23.45
2017-03-03T00:31:04.175Z,23.55
2017-03-03T00:31:18.827Z,23.55
2017-03-03T00:31:33.453Z,23.56
2017-03-03T00:31:48.089Z,23.59
2017-03-03T00:32:02.714Z,23.56
2017-03-03T00:32:17.317Z,23.62
2017-03-03T00:32:31.947Z,23.59
2017-03-03T00:32:46.579Z,23.53
2017-03-03T00:33:01.220Z,23.62
2017-03-03T00:33:15.830Z,23.56
2017-03-03T00:33:30.557Z,23.57
2017-03-03T00:33:45.214Z,23.47
2017-03-03T00:33:59.986Z,23.57
2017-03-03T00:34:14.542Z,23.47
2017-03-03T00:34:29.182Z,23.56
2017-03-03T00:34:43.794Z,23.53
2017-03-03T00:34:58.426Z,23.52
2017-03-03T00:35:13.096Z,23.45
2017-03-03T00:35:27.777Z,23.41
2017-03-03T00:35:42.456Z,23.42
2017-03-03T00:35:57.048Z,23.42
2017-03-03T00:36:11.712Z,23.45
2017-03-03T00:36:26.335Z,23.38
2017-03-03T00:36:40.951Z,23.41
2017-03-03T00:36:55.548Z,23.41
2017-03-03T00:37:10.192Z,23.38
2017-03-03T00:37:24.833Z,23.37
2017-03-03T00:37:39.473Z,23.35
2017-03-03T00:37:54.076Z,23.35
2017-03-03T00:38:08.772Z,23.29
2017-03-03T00:38:23.457Z,23.34
2017-03-03T00:38:38.088Z,23.26
2017-03-03T00:38:52.721Z,23.35
2017-03-03T00:39:07.362Z,23.35
2017-03-03T00:39:22.044Z,23.34
2017-03-03T00:39:36.675Z,23.4
2017-03-03T00:39:51.218Z,23.32
2017-03-03T00:40:05.835Z,23.34
2017-03-03T00:40:20.374Z,23.42
2017-03-03T00:40:35.044Z,23.4
2017-03-03T00:40:49.681Z,23.41
2017-03-03T00:41:04.331Z,23.4
2017-03-03T00:41:18.955Z,23.4
2017-03-03T00:41:33.568Z,23.48
2017-03-03T00:41:48.219Z,23.48
2017-03-03T00:42:02.813Z,23.55
2017-03-03T00:42:17.457Z,23.53
2017-03-03T00:42:32.073Z,23.45
2017-03-03T00:42:46.692Z,23.44
2017-03-03T00:43:01.354Z,23.48
2017-03-03T00:43:15.966Z,23.4
2017-03-03T00:43:30.532Z,23.41
2017-03-03T00:43:45.180Z,23.42
2017-03-03T00:43:59.792Z,23.41
2017-03-03T00:44:14.374Z,23.32
2017-03-03T00:44:28.962Z,23.4
2017-03-03T00:44:43.608Z,23.34
2017-03-03T00:44:58.249Z,23.34
2017-03-03T00:45:12.920Z,23.4
2017-03-03T00:45:27.495Z,23.41
2017-03-03T00:45:42.127Z,23.4
2017-03-03T00:45:56.793Z,23.38
2017-03-03T00:46:11.451Z,23.42
2017-03-03T00:46:26.045Z,23.37
2017-03-03T00:46:40.670Z,23.37
2017-03-03T00:46:55.284Z,23.42
2017-03-03T00:47:09.898Z,23.35
2017-03-03T00:47:24.473Z,23.37
2017-03-03T00:47:39.079Z,23.37
2017-03-03T00:47:53.743Z,23.42
2017-03-03T00:48:08.372Z,23.34
2017-03-03T00:48:23.004Z,23.41
2017-03-03T00:48:37.638Z,23.38
2017-03-03T00:48:52.314Z,23.44
2017-03-03T00:49:07.134Z,23.38
2017-03-03T00:49:21.767Z,23.38
2017-03-03T00:49:36.391Z,23.29
2017-03-03T00:49:51.033Z,23.37
2017-03-03T00:50:05.653Z,23.38
2017-03-03T00:50:20.265Z,23.35
2017-03-03T00:50:34.969Z,23.29
2017-03-03T00:50:49.604Z,23.35
2017-03-03T00:51:04.248Z,23.37
2017-03-03T00:51:18.899Z,23.29
2017-03-03T00:51:33.538Z,23.34
2017-03-03T00:51:48.221Z,23.24
2017-03-03T00:52:02.897Z,23.16
2017-03-03T00:52:17.544Z,23.24
2017-03-03T00:52:32.195Z,23.28
2017-03-03T00:52:46.800Z,23.24
2017-03-03T00:53:01.426Z,23.26
2017-03-03T00:53:16.085Z,23.26
2017-03-03T00:53:30.688Z,23.24
2017-03-03T00:53:45.329Z,23.19
2017-03-03T00:53:59.997Z,23.15
2017-03-03T00:54:14.650Z,23.21
2017-03-03T00:54:29.290Z,23.19
2017-03-03T00:54:43.932Z,23.15
2017-03-03T00:54:58.599Z,23.18
2017-03-03T00:55:13.190Z,23.06
2017-03-03T00:55:27.861Z,23.07
2017-03-03T00:55:42.510Z,23.06
2017-03-03T00:55:57.150Z,23.1
2017-03-03T00:56:11.795Z,23.14
2017-03-03T00:56:26.428Z,23.14
2017-03-03T00:56:41.042Z,23.1
2017-03-03T00:56:55.634Z,22.94
2017-03-03T00:57:10.286Z,23.07
2017-03-03T00:57:24.855Z,22.97
2017-03-03T00:57:39.495Z,23.03
2017-03-03T00:57:54.305Z,22.94
2017-03-03T00:58:08.955Z,22.92
2017-03-03T00:58:23.620Z,22.86
2017-03-03T00:58:38.249Z,22.89
2017-03-03T00:58:52.864Z,23
2017-03-03T00:59:07.510Z,22.86
2017-03-03T00:59:22.147Z,22.88
2017-03-03T00:59:36.760Z,22.96
2017-03-03T00:59:51.396Z,23.03
2017-03-03T01:00:06.071Z,22.97
2017-03-03T01:00:20.666Z,23
2017-03-03T01:00:35.283Z,22.89
2017-03-03T01:00:49.918Z,22.97
2017-03-03T01:01:04.507Z,22.97
2017-03-03T01:01:19.134Z,22.82
2017-03-03T01:01:33.812Z,22.79
2017-03-03T01:01:48.470Z,22.84
2017-03-03T01:02:03.107Z,22.85
2017-03-03T01:02:17.794Z,22.86
2017-03-03T01:02:32.378Z,22.79
2017-03-03T01:02:46.966Z,22.88
2017-03-03T01:03:01.578Z,22.85
2017-03-03T01:03:16.172Z,22.85
2017-03-03T01:03:30.793Z,22.86
2017-03-03T01:03:45.398Z,22.85
2017-03-03T01:04:00.204Z,22.84
2017-03-03T01:04:15.049Z,22.89
2017-03-03T01:04:29.696Z,22.86
2017-03-03T01:04:44.306Z,22.89
2017-03-03T01:04:59.435Z,22.86
2017-03-03T01:05:14.095Z,22.81
2017-03-03T01:05:28.738Z,22.85
2017-03-03T01:05:43.328Z,22.84
2017-03-03T01:05:58.007Z,22.81
2017-03-03T01:06:12.597Z,22.81
2017-03-03T01:06:27.278Z,22.82
2017-03-03T01:06:41.928Z,22.76
2017-03-03T01:06:56.631Z,22.79
2017-03-03T01:07:11.270Z,22.81
2017-03-03T01:07:25.892Z,22.81
2017-03-03T01:07:40.516Z,22.75
2017-03-03T01:07:55.105Z,22.82
2017-03-03T01:08:09.696Z,22.79
2017-03-03T01:08:24.338Z,22.79
2017-03-03T01:08:38.977Z,22.81
2017-03-03T01:08:53.623Z,22.88
2017-03-03T01:09:08.268Z,22.82
2017-03-03T01:09:22.938Z,22.75
2017-03-03T01:09:37.502Z,22.78
2017-03-03T01:09:52.141Z,22.78
2017-03-03T01:10:06.757Z,22.69
2017-03-03T01:10:21.368Z,22.76
2017-03-03T01:10:35.960Z,22.73
2017-03-03T01:10:50.631Z,22.73
2017-03-03T01:11:05.243Z,22.79
2017-03-03T01:11:19.846Z,22.82
2017-03-03T01:11:34.464Z,22.84
2017-03-03T01:11:49.016Z,22.78
2017-03-03T01:12:03.670Z,22.76
2017-03-03T01:12:18.293Z,22.81
2017-03-03T01:12:32.944Z,22.67
2017-03-03T01:12:47.607Z,22.81
2017-03-03T01:13:02.195Z,22.84
2017-03-03T01:13:16.845Z,22.73
2017-03-03T01:13:31.475Z,22.73
2017-03-03T01:13:46.141Z,22.78
2017-03-03T01:14:00.822Z,22.76
2017-03-03T01:14:15.472Z,22.81
2017-03-03T01:14:30.147Z,22.71
2017-03-03T01:14:44.959Z,22.69
2017-03-03T01:14:59.598Z,22.69
2017-03-03T01:15:14.256Z,22.69
2017-03-03T01:15:28.935Z,22.69
2017-03-03T01:15:43.522Z,22.69
2017-03-03T01:15:58.159Z,22.71
2017-03-03T01:16:12.770Z,22.71
2017-03-03T01:16:27.354Z,22.76
2017-03-03T01:16:42.068Z,22.69
2017-03-03T01:16:56.707Z,22.7
2017-03-03T01:17:11.374Z,22.7
2017-03-03T01:17:26.023Z,22.78
2017-03-03T01:17:40.734Z,22.76
2017-03-03T01:17:55.373Z,22.78
2017-03-03T01:18:09.929Z,22.76
2017-03-03T01:18:24.531Z,22.73
2017-03-03T01:18:39.152Z,22.85
2017-03-03T01:18:53.752Z,22.78
2017-03-03T01:19:08.425Z,22.79
2017-03-03T01:19:23.274Z,22.84
2017-03-03T01:19:37.866Z,22.71
2017-03-03T01:19:52.691Z,22.84
2017-03-03T01:20:07.317Z,22.82
2017-03-03T01:20:21.956Z,22.82
2017-03-03T01:20:36.569Z,22.78
2017-03-03T01:20:51.182Z,22.82
2017-03-03T01:21:05.847Z,22.82
2017-03-03T01:21:20.513Z,22.76
2017-03-03T01:21:35.201Z,22.75
2017-03-03T01:21:49.829Z,22.81
2017-03-03T01:22:04.464Z,22.75
2017-03-03T01:22:19.118Z,22.81
2017-03-03T01:22:33.989Z,22.71
2017-03-03T01:22:48.590Z,22.78
2017-03-03T01:23:03.173Z,22.79
2017-03-03T01:23:17.742Z,22.73
2017-03-03T01:23:32.355Z,22.82
2017-03-03T01:23:46.979Z,22.81
2017-03-03T01:24:01.588Z,22.78
2017-03-03T01:24:16.223Z,22.81
2017-03-03T01:24:30.853Z,22.84
2017-03-03T01:24:45.511Z,22.78
2017-03-03T01:25:00.123Z,22.7
2017-03-03T01:25:14.817Z,22.73
2017-03-03T01:25:29.477Z,22.82
2017-03-03T01:25:44.111Z,22.73
2017-03-03T01:25:58.784Z,22.79
2017-03-03T01:26:13.454Z,22.85
2017-03-03T01:26:28.008Z,22.81
2017-03-03T01:26:42.635Z,22.82
2017-03-03T01:26:57.647Z,22.79
2017-03-03T01:27:12.237Z,22.84
2017-03-03T01:27:26.881Z,22.79
2017-03-03T01:27:41.479Z,22.84
2017-03-03T01:27:56.108Z,22.82
2017-03-03T01:28:10.694Z,22.82
2017-03-03T01:28:25.366Z,22.79
2017-03-03T01:28:40.008Z,22.75
2017-03-03T01:28:54.621Z,22.82
2017-03-03T01:29:09.252Z,22.82
2017-03-03T01:29:23.885Z,22.78
2017-03-03T01:29:38.521Z,22.81
2017-03-03T01:29:53.144Z,22.73
2017-03-03T01:30:07.759Z,22.84
2017-03-03T01:30:22.409Z,22.82
2017-03-03T01:30:37.096Z,22.84
2017-03-03T01:30:51.679Z,22.79
2017-03-03T01:31:06.329Z,22.81
2017-03-03T01:31:20.983Z,22.81
2017-03-03T01:31:35.580Z,22.79
2017-03-03T01:31:50.201Z,22.88
2017-03-03T01:32:04.917Z,22.81
2017-03-03T01:32:19.573Z,22.84
2017-03-03T01:32:34.178Z,22.86
2017-03-03T01:32:48.777Z,22.85
2017-03-03T01:33:03.421Z,22.85
2017-03-03T01:33:18.023Z,22.84
2017-03-03T01:33:32.663Z,22.86
2017-03-03T01:33:47.263Z,22.81
2017-03-03T01:34:01.881Z,22.88
2017-03-03T01:34:16.524Z,22.85
2017-03-03T01:34:31.278Z,22.84
2017-03-03T01:34:45.898Z,22.84
2017-03-03T01:35:00.560Z,22.85
2017-03-03T01:35:15.193Z,22.81
2017-03-03T01:35:29.857Z,22.84
2017-03-03T01:35:44.524Z,22.84
2017-03-03T01:35:59.179Z,22.94
2017-03-03T01:36:13.750Z,22.82
2017-03-03T01:36:28.315Z,22.82
2017-03-03T01:36:42.918Z,22.85
2017-03-03T01:36:57.729Z,22.81
2017-03-03T01:37:12.333Z,22.96
2017-03-03T01:37:26.961Z,22.92
2017-03-03T01:37:41.589Z,22.85
2017-03-03T01:37:56.247Z,22.88
2017-03-03T01:38:10.901Z,22.96
2017-03-03T01:38:25.590Z,23.03
2017-03-03T01:38:40.241Z,22.94
2017-03-03T01:38:54.894Z,23.04
2017-03-03T01:39:09.553Z,23.03
2017-03-03T01:39:24.189Z,23.01
2017-03-03T01:39:38.840Z,23.03
2017-03-03T01:39:53.413Z,23
2017-03-03T01:40:08.033Z,23.03
2017-03-03T01:40:22.672Z,23
2017-03-03T01:40:37.320Z,23
2017-03-03T01:40:51.986Z,22.94
2017-03-03T01:41:06.548Z,23.04
2017-03-03T01:41:21.157Z,23.06
2017-03-03T01:41:35.763Z,23
2017-03-03T01:41:50.409Z,22.94
2017-03-03T01:42:05.066Z,22.96
2017-03-03T01:42:19.639Z,22.99
2017-03-03T01:42:34.245Z,23.06
2017-03-03T01:42:48.890Z,22.92
2017-03-03T01:43:03.535Z,23
2017-03-03T01:43:18.188Z,23.04
2017-03-03T01:43:32.802Z,22.88
2017-03-03T01:43:47.476Z,22.94
2017-03-03T01:44:02.073Z,22.85
2017-03-03T01:44:16.675Z,22.96
2017-03-03T01:44:31.286Z,22.94
2017-03-03T01:44:45.958Z,22.85
2017-03-03T01:45:00.557Z,22.88
2017-03-03T01:45:15.198Z,22.85
2017-03-03T01:45:29.829Z,22.84
2017-03-03T01:45:44.484Z,22.79
2017-03-03T01:45:59.105Z,22.79
2017-03-03T01:46:13.674Z,22.86
2017-03-03T01:46:28.335Z,22.84
2017-03-03T01:46:42.983Z,22.81
2017-03-03T01:46:57.623Z,22.78
2017-03-03T01:47:12.264Z,22.85
2017-03-03T01:47:26.881Z,22.69
2017-03-03T01:47:41.505Z,22.81
2017-03-03T01:47:56.105Z,22.7
2017-03-03T01:48:10.679Z,22.76
2017-03-03T01:48:25.390Z,22.73
2017-03-03T01:48:39.998Z,22.82
2017-03-03T01:48:54.601Z,22.76
2017-03-03T01:49:09.208Z,22.82
2017-03-03T01:49:23.817Z,22.73
2017-03-03T01:49:38.621Z,22.75
2017-03-03T01:49:53.276Z,22.76
2017-03-03T01:50:07.934Z,22.82
2017-03-03T01:50:22.511Z,22.84
2017-03-03T01:50:37.106Z,22.78
2017-03-03T01:50:51.733Z,22.78
2017-03-03T01:51:06.320Z,22.78
2017-03-03T01:51:20.957Z,22.86
2017-03-03T01:51:35.567Z,22.88
2017-03-03T01:51:50.239Z,22.84
2017-03-03T01:52:04.932Z,22.76
2017-03-03T01:52:19.523Z,22.84
2017-03-03T01:52:34.165Z,22.82
2017-03-03T01:52:48.727Z,22.85
2017-03-03T01:53:03.298Z,22.73
2017-03-03T01:53:17.934Z,22.79
2017-03-03T01:53:32.591Z,22.82
2017-03-03T01:53:47.309Z,22.76
2017-03-03T01:54:01.951Z,22.82
2017-03-03T01:54:16.523Z,22.76
2017-03-03T01:54:31.169Z,22.79
2017-03-03T01:54:45.756Z,22.73
2017-03-03T01:55:00.375Z,22.73
2017-03-03T01:55:14.954Z,22.78
2017-03-03T01:55:29.617Z,22.75
2017-03-03T01:55:44.250Z,22.76
2017-03-03T01:55:58.896Z,22.78
2017-03-03T01:56:13.542Z,22.75
2017-03-03T01:56:28.162Z,22.82
2017-03-03T01:56:42.728Z,22.78
2017-03-03T01:56:57.395Z,22.82
2017-03-03T01:57:11.989Z,22.81
2017-03-03T01:57:26.580Z,22.79
2017-03-03T01:57:41.165Z,22.82
2017-03-03T01:57:55.724Z,22.84
2017-03-03T01:58:10.287Z,22.89
2017-03-03T01:58:24.858Z,22.89
2017-03-03T01:58:39.467Z,22.78
2017-03-03T01:58:54.070Z,22.84
2017-03-03T01:59:08.675Z,22.81
2017-03-03T01:59:23.297Z,22.82
2017-03-03T01:59:37.919Z,22.81
2017-03-03T01:59:52.505Z,22.81
2017-03-03T02:00:07.100Z,22.84
2017-03-03T02:00:21.678Z,22.84
2017-03-03T02:00:36.233Z,22.84
2017-03-03T02:00:50.776Z,22.82
2017-03-03T02:01:05.366Z,22.85
2017-03-03T02:01:19.983Z,22.89
2017-03-03T02:01:34.597Z,22.85
2017-03-03T02:01:49.232Z,22.82
2017-03-03T02:02:03.896Z,22.89
2017-03-03T02:02:18.472Z,22.92
2017-03-03T02:02:33.050Z,22.89
2017-03-03T02:02:47.639Z,22.94
2017-03-03T02:03:02.255Z,22.97
2017-03-03T02:03:16.874Z,22.99
2017-03-03T02:03:31.458Z,22.88
2017-03-03T02:03:46.099Z,22.92
2017-03-03T02:04:00.773Z,22.96
2017-03-03T02:04:15.370Z,22.86
2017-03-03T02:04:29.990Z,22.96
2017-03-03T02:04:45.149Z,22.92
2017-03-03T02:04:59.798Z,22.89
2017-03-03T02:05:14.349Z,22.84
2017-03-03T02:05:28.929Z,22.88
2017-03-03T02:05:43.532Z,22.85
2017-03-03T02:05:58.076Z,22.82
2017-03-03T02:06:12.659Z,22.88
2017-03-03T02:06:27.306Z,22.81
2017-03-03T02:06:41.916Z,22.89
2017-03-03T02:06:56.525Z,22.81
2017-03-03T02:07:11.161Z,22.88
2017-03-03T02:07:25.935Z,22.78
2017-03-03T02:07:40.519Z,22.79
2017-03-03T02:07:55.094Z,22.78
2017-03-03T02:08:09.675Z,22.81
2017-03-03T02:08:24.232Z,22.85
2017-03-03T02:08:38.856Z,22.79
2017-03-03T02:08:53.490Z,22.81
2017-03-03T02:09:08.111Z,22.82
2017-03-03T02:09:22.729Z,22.81
2017-03-03T02:09:37.313Z,22.78
2017-03-03T02:09:51.939Z,22.75
2017-03-03T02:10:06.563Z,22.78
2017-03-03T02:10:21.177Z,22.81
2017-03-03T02:10:35.826Z,22.81
2017-03-03T02:10:50.492Z,22.79
2017-03-03T02:11:05.096Z,22.73
2017-03-03T02:11:19.650Z,22.79
2017-03-03T02:11:34.250Z,22.82
2017-03-03T02:11:48.911Z,22.79
2017-03-03T02:12:03.502Z,22.79
2017-03-03T02:12:18.129Z,22.84
2017-03-03T02:12:32.686Z,22.75
2017-03-03T02:12:47.334Z,22.76
2017-03-03T02:13:01.982Z,22.79
2017-03-03T02:13:16.537Z,22.78
2017-03-03T02:13:31.167Z,22.79
2017-03-03T02:13:45.769Z,22.79
2017-03-03T02:14:00.377Z,22.79
2017-03-03T02:14:14.953Z,22.78
2017-03-03T02:14:29.575Z,22.73
2017-03-03T02:14:44.211Z,22.79
2017-03-03T02:14:58.772Z,22.71
2017-03-03T02:15:13.418Z,22.78
2017-03-03T02:15:28.060Z,22.78
2017-03-03T02:15:42.690Z,22.78
2017-03-03T02:15:57.277Z,22.78
2017-03-03T02:16:11.824Z,22.76
2017-03-03T02:16:26.448Z,22.78
2017-03-03T02:16:41.032Z,22.78
2017-03-03T02:16:55.624Z,22.75
2017-03-03T02:17:10.221Z,22.76
2017-03-03T02:17:24.795Z,22.81
2017-03-03T02:17:39.360Z,22.85
2017-03-03T02:17:54.182Z,22.81
2017-03-03T02:18:08.787Z,22.81
2017-03-03T02:18:23.341Z,22.79
2017-03-03T02:18:37.915Z,22.79
2017-03-03T02:18:52.704Z,22.76
2017-03-03T02:19:07.283Z,22.82
2017-03-03T02:19:21.852Z,22.82
2017-03-03T02:19:36.444Z,22.81
2017-03-03T02:19:51.022Z,22.76
2017-03-03T02:20:05.864Z,22.78
2017-03-03T02:20:20.442Z,22.76
2017-03-03T02:20:34.975Z,22.81
2017-03-03T02:20:49.595Z,22.81
2017-03-03T02:21:04.137Z,22.81
2017-03-03T02:21:18.709Z,22.76
2017-03-03T02:21:33.277Z,22.82
2017-03-03T02:21:47.889Z,22.73
2017-03-03T02:22:02.474Z,22.78
2017-03-03T02:22:17.101Z,22.86
2017-03-03T02:22:31.662Z,22.79
2017-03-03T02:22:46.302Z,22.76
2017-03-03T02:23:00.872Z,22.81
2017-03-03T02:23:15.474Z,22.84
2017-03-03T02:23:30.060Z,22.79
2017-03-03T02:23:44.651Z,22.75
2017-03-03T02:23:59.253Z,22.81
2017-03-03T02:24:13.864Z,22.79
2017-03-03T02:24:28.501Z,22.79
2017-03-03T02:24:43.109Z,22.79
2017-03-03T02:24:57.764Z,22.88
2017-03-03T02:25:12.337Z,22.88
2017-03-03T02:25:26.886Z,22.86
2017-03-03T02:25:41.510Z,22.82
2017-03-03T02:25:56.100Z,22.84
2017-03-03T02:26:10.752Z,22.84
2017-03-03T02:26:25.339Z,22.88
2017-03-03T02:26:39.943Z,22.85
2017-03-03T02:26:54.542Z,22.86
2017-03-03T02:27:09.176Z,23.03
2017-03-03T02:27:23.768Z,22.89
2017-03-03T02:27:38.308Z,22.79
2017-03-03T02:27:52.941Z,22.96
2017-03-03T02:28:07.553Z,22.91
2017-03-03T02:28:22.167Z,22.85
2017-03-03T02:28:37.255Z,22.79
2017-03-03T02:28:51.827Z,22.96
2017-03-03T02:29:06.473Z,22.88
2017-03-03T02:29:21.080Z,22.91
2017-03-03T02:29:35.705Z,22.82
2017-03-03T02:29:50.550Z,22.88
2017-03-03T02:30:05.163Z,22.81
2017-03-03T02:30:19.820Z,22.84
2017-03-03T02:30:34.408Z,22.92
2017-03-03T02:30:48.999Z,22.86
2017-03-03T02:31:03.637Z,22.81
2017-03-03T02:31:18.278Z,22.86
2017-03-03T02:31:32.924Z,22.82
2017-03-03T02:31:47.499Z,22.89
2017-03-03T02:32:02.023Z,22.91
2017-03-03T02:32:16.636Z,22.94
2017-03-03T02:32:31.250Z,22.94
2017-03-03T02:32:45.898Z,22.86
2017-03-03T02:33:00.565Z,22.86
2017-03-03T02:33:15.152Z,22.94
2017-03-03T02:33:29.686Z,22.88
2017-03-03T02:33:44.308Z,22.94
2017-03-03T02:33:58.899Z,22.94
2017-03-03T02:34:13.513Z,22.97
2017-03-03T02:34:28.179Z,22.86
2017-03-03T02:34:42.809Z,22.88
2017-03-03T02:34:57.462Z,22.92
2017-03-03T02:35:12.374Z,22.88
2017-03-03T02:35:26.954Z,22.89
2017-03-03T02:35:41.550Z,22.92
2017-03-03T02:35:56.102Z,22.92
2017-03-03T02:36:10.872Z,22.96
2017-03-03T02:36:25.485Z,22.94
2017-03-03T02:36:40.098Z,22.86
2017-03-03T02:36:54.736Z,22.82
2017-03-03T02:37:09.280Z,22.82
2017-03-03T02:37:23.898Z,22.84
2017-03-03T02:37:38.519Z,22.79
2017-03-03T02:37:53.118Z,22.76
2017-03-03T02:38:07.701Z,22.84
2017-03-03T02:38:22.317Z,22.81
2017-03-03T02:38:36.921Z,22.71
2017-03-03T02:38:51.548Z,22.86
2017-03-03T02:39:06.098Z,22.82
2017-03-03T02:39:20.653Z,22.79
2017-03-03T02:39:35.302Z,22.78
2017-03-03T02:39:49.982Z,22.84
2017-03-03T02:40:04.633Z,22.76
2017-03-03T02:40:19.248Z,22.75
2017-03-03T02:40:33.881Z,22.79
2017-03-03T02:40:48.522Z,22.79
2017-03-03T02:41:03.102Z,22.79
2017-03-03T02:41:17.741Z,22.82
2017-03-03T02:41:32.326Z,22.76
2017-03-03T02:41:46.913Z,22.75
2017-03-03T02:42:01.529Z,22.79
2017-03-03T02:42:16.182Z,22.86
2017-03-03T02:42:30.740Z,22.78
2017-03-03T02:42:45.327Z,22.79
2017-03-03T02:42:59.960Z,22.7
2017-03-03T02:43:14.559Z,22.7
2017-03-03T02:43:29.154Z,22.7
2017-03-03T02:43:43.757Z,22.7
2017-03-03T02:43:58.351Z,22.66
2017-03-03T02:44:12.954Z,22.73
2017-03-03T02:44:27.540Z,22.66
2017-03-03T02:44:42.644Z,22.71
2017-03-03T02:44:57.220Z,22.7
2017-03-03T02:45:11.771Z,22.75
2017-03-03T02:45:26.343Z,22.75
2017-03-03T02:45:41.000Z,22.76
2017-03-03T02:45:55.592Z,22.76
2017-03-03T02:46:10.174Z,22.84
2017-03-03T02:46:24.756Z,22.76
2017-03-03T02:46:39.357Z,22.79
2017-03-03T02:46:53.952Z,22.75
2017-03-03T02:47:08.525Z,22.75
2017-03-03T02:47:23.102Z,22.75
2017-03-03T02:47:37.706Z,22.71
2017-03-03T02:47:52.263Z,22.69
2017-03-03T02:48:06.869Z,22.76
2017-03-03T02:48:21.486Z,22.66
2017-03-03T02:48:36.059Z,22.69
2017-03-03T02:48:50.661Z,22.78
2017-03-03T02:49:05.240Z,22.73
2017-03-03T02:49:19.844Z,22.76
2017-03-03T02:49:34.672Z,22.71
2017-03-03T02:49:49.308Z,22.71
2017-03-03T02:50:03.864Z,22.81
2017-03-03T02:50:18.864Z,22.82
2017-03-03T02:50:33.461Z,22.75
2017-03-03T02:50:48.059Z,22.79
2017-03-03T02:51:02.713Z,22.73
2017-03-03T02:51:17.357Z,22.79
2017-03-03T02:51:31.970Z,22.86
2017-03-03T02:51:46.540Z,22.73
2017-03-03T02:52:01.133Z,22.82
2017-03-03T02:52:15.726Z,22.79
2017-03-03T02:52:30.304Z,22.71
2017-03-03T02:52:44.918Z,22.81
2017-03-03T02:52:59.498Z,22.75
2017-03-03T02:53:14.063Z,22.75
2017-03-03T02:53:28.706Z,22.75
2017-03-03T02:53:43.327Z,22.67
2017-03-03T02:53:57.927Z,22.71
2017-03-03T02:54:12.543Z,22.66
2017-03-03T02:54:27.086Z,22.66
2017-03-03T02:54:41.652Z,22.66
2017-03-03T02:54:56.327Z,22.6
2017-03-03T02:55:10.935Z,22.66
2017-03-03T02:55:25.548Z,22.54
2017-03-03T02:55:40.136Z,22.57
2017-03-03T02:55:54.758Z,22.63
2017-03-03T02:56:09.297Z,22.64
2017-03-03T02:56:23.910Z,22.63
2017-03-03T02:56:38.519Z,22.66
2017-03-03T02:56:53.045Z,22.71
2017-03-03T02:57:07.682Z,22.71
2017-03-03T02:57:22.303Z,22.73
2017-03-03T02:57:36.857Z,22.67
2017-03-03T02:57:51.413Z,22.7
2017-03-03T02:58:06.044Z,22.71
2017-03-03T02:58:20.655Z,22.7
2017-03-03T02:58:35.240Z,22.67
2017-03-03T02:58:49.845Z,22.69
2017-03-03T02:59:04.403Z,22.66
2017-03-03T02:59:19.007Z,22.71
2017-03-03T02:59:33.597Z,22.67
2017-03-03T02:59:48.194Z,22.64
2017-03-03T03:00:02.773Z,22.55
2017-03-03T03:00:17.331Z,22.64
2017-03-03T03:00:32.038Z,22.55
2017-03-03T03:00:46.621Z,22.63
2017-03-03T03:01:01.159Z,22.61
2017-03-03T03:01:15.814Z,22.66
2017-03-03T03:01:30.362Z,22.61
2017-03-03T03:01:44.930Z,22.59
2017-03-03T03:01:59.481Z,22.55
2017-03-03T03:02:14.025Z,22.49
2017-03-03T03:02:28.602Z,22.57
2017-03-03T03:02:43.280Z,22.63
2017-03-03T03:02:57.866Z,22.6
2017-03-03T03:03:12.454Z,22.51
2017-03-03T03:03:27.056Z,22.54
2017-03-03T03:03:41.696Z,22.51
2017-03-03T03:03:56.319Z,22.6
2017-03-03T03:04:10.916Z,22.61
2017-03-03T03:04:25.486Z,22.59
2017-03-03T03:04:40.085Z,22.59
2017-03-03T03:04:54.668Z,22.57
2017-03-03T03:05:09.191Z,22.64
2017-03-03T03:05:24.071Z,22.63
2017-03-03T03:05:38.687Z,22.64
2017-03-03T03:05:53.292Z,22.67
2017-03-03T03:06:07.890Z,22.63
2017-03-03T03:06:22.524Z,22.71
2017-03-03T03:06:37.153Z,22.66
2017-03-03T03:06:51.761Z,22.7
2017-03-03T03:07:06.405Z,22.7
2017-03-03T03:07:20.988Z,22.73
2017-03-03T03:07:35.612Z,22.66
2017-03-03T03:07:50.157Z,22.67
2017-03-03T03:08:04.779Z,22.67
2017-03-03T03:08:19.447Z,22.66
2017-03-03T03:08:34.010Z,22.71
2017-03-03T03:08:48.632Z,22.76
2017-03-03T03:09:03.229Z,22.76